createdAt,value
2023-04-27T00:02:03.130Z,98085.34
2023-04-27T00:04:34.983Z,98089.09
2023-04-27T00:07:05.456Z,98092.94
2023-04-27T00:09:37.024Z,98093.69
2023-04-27T00:12:06.917Z,98086.81
2023-04-27T00:14:37.370Z,98083.69
2023-04-27T00:17:08.209Z,98082.63
2023-04-27T00:19:38.528Z,98082.75
2023-04-27T00:22:09.232Z,98079.03
2023-04-27T00:24:42.273Z,98077.41
2023-04-27T00:27:14.316Z,98078.22
2023-04-27T00:29:44.581Z,98076.69
2023-04-27T00:32:13.427Z,98082.41
2023-04-27T00:34:41.928Z,98064.81
2023-04-27T00:37:10.168Z,98071.81
2023-04-27T00:39:39.546Z,98065.84
2023-04-27T00:42:11.480Z,98059.91
2023-04-27T00:44:40.027Z,98066.81
2023-04-27T00:47:08.242Z,98055.72
2023-04-27T00:49:36.358Z,98060.97
2023-04-27T00:52:04.376Z,98052.69
2023-04-27T00:54:32.955Z,98058.75
2023-04-27T00:57:02.498Z,98052.56
2023-04-27T00:59:30.917Z,98056.41
2023-04-27T01:01:59.188Z,98059.31
2023-04-27T01:04:28.876Z,98059.69
2023-04-27T01:06:57.669Z,98064.97
2023-04-27T01:09:26.526Z,98055.84
2023-04-27T01:11:54.550Z,98061.78
2023-04-27T01:14:24.132Z,98060.16
2023-04-27T01:16:52.928Z,98057.34
2023-04-27T01:19:21.127Z,98060.59
2023-04-27T01:21:49.424Z,98065.75
2023-04-27T01:24:19.740Z,98068.34
2023-04-27T01:26:47.955Z,98060.53
2023-04-27T01:29:16.129Z,98056.41
2023-04-27T01:31:44.338Z,98062.81
2023-04-27T01:34:12.487Z,98057.69
2023-04-27T01:36:40.702Z,98062.59
2023-04-27T01:39:09.983Z,98054.22
2023-04-27T01:41:39.403Z,98052.09
2023-04-27T01:44:07.970Z,98061.53
2023-04-27T01:46:36.211Z,98067.13
2023-04-27T01:49:04.485Z,98056.19
2023-04-27T01:51:33.150Z,98056.66
2023-04-27T01:54:01.243Z,98066.81
2023-04-27T01:56:29.302Z,98067.06
2023-04-27T01:58:58.754Z,98075.31
2023-04-27T02:01:26.942Z,98068.81
2023-04-27T02:03:55.407Z,98070.31
2023-04-27T02:06:23.736Z,98075.91
2023-04-27T02:08:51.952Z,98078.59
2023-04-27T02:11:20.090Z,98080.00
2023-04-27T02:13:48.941Z,98078.00
2023-04-27T02:16:18.553Z,98081.97
2023-04-27T02:18:46.988Z,98082.09
2023-04-27T02:21:17.349Z,98084.53
2023-04-27T02:23:48.208Z,98086.63
2023-04-27T02:26:22.945Z,98079.88
2023-04-27T02:28:54.206Z,98084.19
2023-04-27T02:31:26.526Z,98086.84
2023-04-27T02:33:54.879Z,98089.19
2023-04-27T02:36:22.938Z,98089.78
2023-04-27T02:38:54.522Z,98101.31
2023-04-27T02:41:22.675Z,98099.22
2023-04-27T02:43:51.940Z,98088.72
2023-04-27T02:46:20.269Z,98102.13
2023-04-27T02:48:49.989Z,98093.50
2023-04-27T02:51:20.990Z,98085.56
2023-04-27T02:53:49.135Z,98092.34
2023-04-27T02:56:17.617Z,98099.31
2023-04-27T02:58:46.005Z,98096.28
2023-04-27T03:01:14.425Z,98102.00
2023-04-27T03:03:42.869Z,98103.41
2023-04-27T03:06:12.388Z,98093.16
2023-04-27T03:08:40.866Z,98099.09
2023-04-27T03:11:09.842Z,98092.34
2023-04-27T03:13:42.387Z,98094.19
2023-04-27T03:16:12.007Z,98100.59
2023-04-27T03:18:41.163Z,98098.75
2023-04-27T03:21:10.275Z,98100.84
2023-04-27T03:23:40.510Z,98101.41
2023-04-27T03:26:09.407Z,98102.22
2023-04-27T03:28:37.694Z,98108.88
2023-04-27T03:31:07.173Z,98104.56
2023-04-27T03:33:35.355Z,98104.78
2023-04-27T03:36:04.644Z,98112.47
2023-04-27T03:38:33.825Z,98109.22
2023-04-27T03:41:03.297Z,98098.94
2023-04-27T03:43:31.373Z,98100.00
2023-04-27T03:45:59.426Z,98106.16
2023-04-27T03:48:27.431Z,98090.78
2023-04-27T03:50:55.398Z,98099.88
2023-04-27T03:53:23.457Z,98099.38
2023-04-27T03:55:51.686Z,98101.25
2023-04-27T03:58:21.464Z,98095.53
2023-04-27T04:00:49.448Z,98108.56
2023-04-27T04:03:17.853Z,98106.56
2023-04-27T04:05:47.364Z,98116.69
2023-04-27T04:08:15.588Z,98107.16
2023-04-27T04:10:43.991Z,98100.97
2023-04-27T04:13:12.114Z,98108.91
2023-04-27T04:15:41.816Z,98104.16
2023-04-27T04:18:10.211Z,98110.22
2023-04-27T04:20:38.129Z,98110.81
2023-04-27T04:23:06.364Z,98111.75
2023-04-27T04:25:34.447Z,98104.31
2023-04-27T04:28:02.600Z,98112.94
2023-04-27T04:30:30.787Z,98099.41
2023-04-27T04:33:00.574Z,98110.47
2023-04-27T04:35:28.633Z,98120.75
2023-04-27T04:37:56.818Z,98119.94
2023-04-27T04:40:25.114Z,98123.41
2023-04-27T04:42:53.123Z,98118.53
2023-04-27T04:45:21.723Z,98118.53
2023-04-27T04:47:50.492Z,98118.06
2023-04-27T04:50:20.170Z,98124.00
2023-04-27T04:52:48.589Z,98124.72
2023-04-27T04:55:17.489Z,98129.94
2023-04-27T04:57:45.562Z,98130.53
2023-04-27T05:00:14.903Z,98122.03
2023-04-27T05:02:43.144Z,98133.13
2023-04-27T05:05:11.449Z,98131.72
2023-04-27T05:07:40.922Z,98123.94
2023-04-27T05:10:09.471Z,98116.34
2023-04-27T05:12:37.584Z,98133.00
2023-04-27T05:15:06.568Z,98130.22
2023-04-27T05:17:34.697Z,98123.59
2023-04-27T05:20:02.844Z,98130.66
2023-04-27T05:22:31.321Z,98128.94
2023-04-27T05:25:01.030Z,98121.69
2023-04-27T05:27:29.126Z,98125.94
2023-04-27T05:29:57.434Z,98113.69
2023-04-27T05:32:25.762Z,98122.19
2023-04-27T05:34:53.958Z,98123.13
2023-04-27T05:37:22.418Z,98125.13
2023-04-27T05:39:50.805Z,98121.72
2023-04-27T05:42:20.419Z,98122.88
2023-04-27T05:44:48.420Z,98127.31
2023-04-27T05:47:16.588Z,98125.56
2023-04-27T05:49:45.191Z,98125.09
2023-04-27T05:52:13.335Z,98133.25
2023-04-27T05:54:41.433Z,98137.34
2023-04-27T05:57:09.611Z,98142.00
2023-04-27T05:59:39.340Z,98142.66
2023-04-27T06:02:08.216Z,98143.81
2023-04-27T06:04:37.400Z,98150.09
2023-04-27T06:07:10.358Z,98159.88
2023-04-27T06:09:38.713Z,98155.19
2023-04-27T06:12:08.019Z,98157.19
2023-04-27T06:14:38.683Z,98158.09
2023-04-27T06:17:08.854Z,98167.66
2023-04-27T06:19:36.870Z,98169.97
2023-04-27T06:22:04.974Z,98169.81
2023-04-27T06:24:33.058Z,98171.53
2023-04-27T06:27:01.392Z,98169.50
2023-04-27T06:29:29.709Z,98165.38
2023-04-27T06:31:59.248Z,98163.84
2023-04-27T06:34:27.349Z,98163.94
2023-04-27T06:36:55.315Z,98163.78
2023-04-27T06:39:23.275Z,98167.38
2023-04-27T06:41:51.227Z,98164.03
2023-04-27T06:44:19.267Z,98161.44
2023-04-27T06:46:47.319Z,98157.56
2023-04-27T06:49:16.779Z,98154.47
2023-04-27T06:51:46.843Z,98161.06
2023-04-27T06:54:15.032Z,98156.06
2023-04-27T06:56:43.056Z,98161.28
2023-04-27T06:59:11.273Z,98163.31
2023-04-27T07:01:40.118Z,98169.34
2023-04-27T07:04:08.415Z,98171.34
2023-04-27T07:06:38.091Z,98177.38
2023-04-27T07:09:13.497Z,98174.66
2023-04-27T07:11:48.377Z,98172.09
2023-04-27T07:14:16.481Z,98178.28
2023-04-27T07:16:45.022Z,98174.56
2023-04-27T07:19:13.192Z,98184.72
2023-04-27T07:21:42.784Z,98186.75
2023-04-27T07:24:10.766Z,98174.38
2023-04-27T07:26:39.707Z,98183.97
2023-04-27T07:29:22.883Z,98183.53
2023-04-27T07:31:55.817Z,98182.75
2023-04-27T07:34:24.371Z,98184.03
2023-04-27T07:36:55.176Z,98173.81
2023-04-27T07:39:24.042Z,98169.69
2023-04-27T07:41:52.776Z,98173.75
2023-04-27T07:44:21.051Z,98170.94
2023-04-27T07:46:50.615Z,98160.72
2023-04-27T07:49:20.649Z,98158.16
2023-04-27T07:51:50.272Z,98162.50
2023-04-27T07:54:21.496Z,98168.56
2023-04-27T07:56:50.971Z,98174.00
2023-04-27T07:59:20.580Z,98170.56
2023-04-27T08:01:49.677Z,98173.31
2023-04-27T08:04:20.033Z,98177.72
2023-04-27T08:06:49.741Z,98164.84
2023-04-27T08:09:22.529Z,98168.69
2023-04-27T08:11:52.404Z,98169.78
2023-04-27T08:14:22.827Z,98172.81
2023-04-27T08:16:53.319Z,98167.94
2023-04-27T08:19:21.690Z,98168.22
2023-04-27T08:21:49.674Z,98167.13
2023-04-27T08:24:17.612Z,98159.31
2023-04-27T08:26:47.151Z,98154.44
2023-04-27T08:29:26.413Z,98161.75
2023-04-27T08:31:57.270Z,98158.47
2023-04-27T08:34:25.412Z,98162.44
2023-04-27T08:36:53.944Z,98151.50
2023-04-27T08:39:22.531Z,98151.94
2023-04-27T08:41:52.089Z,98136.34
2023-04-27T08:44:20.804Z,98133.75
2023-04-27T08:46:48.850Z,98128.75
2023-04-27T08:49:17.405Z,98134.38
2023-04-27T08:51:46.262Z,98136.16
2023-04-27T08:54:14.347Z,98127.09
2023-04-27T08:56:42.593Z,98129.72
2023-04-27T08:59:17.731Z,98124.56
2023-04-27T09:01:49.045Z,98118.56
2023-04-27T09:04:20.585Z,98126.69
2023-04-27T09:06:51.953Z,98134.06
2023-04-27T09:09:25.115Z,98121.75
2023-04-27T09:11:54.837Z,98127.13
2023-04-27T09:14:27.293Z,98120.94
2023-04-27T09:17:01.023Z,98124.34
2023-04-27T09:19:33.122Z,98127.31
2023-04-27T09:22:09.624Z,98131.88
2023-04-27T09:24:40.287Z,98135.28
2023-04-27T09:27:10.185Z,98125.16
2023-04-27T09:29:42.135Z,98135.00
2023-04-27T09:32:21.309Z,98134.44
2023-04-27T09:34:53.476Z,98147.28
2023-04-27T09:37:24.726Z,98141.38
2023-04-27T09:39:55.608Z,98140.97
2023-04-27T09:42:26.910Z,98138.75
2023-04-27T09:44:59.805Z,98136.13
2023-04-27T09:47:30.184Z,98136.41
2023-04-27T09:50:03.748Z,98138.75
2023-04-27T09:52:34.354Z,98135.59
2023-04-27T09:55:05.635Z,98129.78
2023-04-27T09:57:41.505Z,98134.13
2023-04-27T10:00:30.607Z,98130.34
2023-04-27T10:03:10.007Z,98131.84
2023-04-27T10:06:08.820Z,98124.84
2023-04-27T10:08:39.023Z,98119.81
2023-04-27T10:11:17.189Z,98114.47
2023-04-27T10:13:55.187Z,98113.59
2023-04-27T10:16:26.850Z,98121.31
2023-04-27T10:18:57.336Z,98124.31
2023-04-27T10:21:28.450Z,98114.88
2023-04-27T10:23:57.565Z,98118.53
2023-04-27T10:26:27.301Z,98124.84
2023-04-27T10:29:08.667Z,98121.97
2023-04-27T10:31:45.633Z,98126.47
2023-04-27T10:34:21.864Z,98127.09
2023-04-27T10:36:51.237Z,98123.50
2023-04-27T10:39:39.650Z,98130.88
2023-04-27T10:42:15.492Z,98121.09
2023-04-27T10:44:45.779Z,98115.75
2023-04-27T10:47:19.967Z,98115.97
2023-04-27T10:49:51.805Z,98121.06
2023-04-27T10:52:21.061Z,98115.44
2023-04-27T10:54:51.080Z,98118.69
2023-04-27T10:57:20.458Z,98106.47
2023-04-27T10:59:51.639Z,98105.38
2023-04-27T11:02:28.069Z,98108.25
2023-04-27T11:04:59.201Z,98101.63
2023-04-27T11:07:29.664Z,98110.91
2023-04-27T11:09:59.140Z,98100.63
2023-04-27T11:12:28.527Z,98111.28
2023-04-27T11:15:00.168Z,98110.03
2023-04-27T11:17:35.525Z,98115.19
2023-04-27T11:20:06.276Z,98104.91
2023-04-27T11:22:35.882Z,98098.81
2023-04-27T11:25:06.818Z,98107.91
2023-04-27T11:27:40.512Z,98102.28
2023-04-27T11:30:21.969Z,98111.09
2023-04-27T11:32:54.733Z,98095.69
2023-04-27T11:35:35.781Z,98100.47
2023-04-27T11:38:06.431Z,98104.59
2023-04-27T11:40:39.020Z,98093.84
2023-04-27T11:43:09.365Z,98088.28
2023-04-27T11:45:43.433Z,98087.44
2023-04-27T11:48:17.528Z,98094.53
2023-04-27T11:50:49.446Z,98099.84
2023-04-27T11:53:19.064Z,98105.59
2023-04-27T11:55:54.652Z,98096.69
2023-04-27T11:58:23.430Z,98102.25
2023-04-27T12:00:55.743Z,98105.06
2023-04-27T12:03:27.364Z,98103.56
2023-04-27T12:05:56.611Z,98098.13
2023-04-27T12:08:25.100Z,98099.66
2023-04-27T12:10:53.484Z,98086.00
2023-04-27T12:13:21.525Z,98090.75
2023-04-27T12:15:49.779Z,98095.22
2023-04-27T12:18:17.843Z,98089.56
2023-04-27T12:20:47.506Z,98085.59
2023-04-27T12:23:15.530Z,98087.38
2023-04-27T12:25:44.216Z,98087.16
2023-04-27T12:28:17.928Z,98078.28
2023-04-27T12:30:46.151Z,98071.81
2023-04-27T12:33:14.526Z,98083.72
2023-04-27T12:35:42.624Z,98084.63
2023-04-27T12:38:12.585Z,98069.28
2023-04-27T12:40:40.664Z,98069.97
2023-04-27T12:43:09.682Z,98071.31
2023-04-27T12:45:37.661Z,98061.50
2023-04-27T12:48:06.121Z,98066.41
2023-04-27T12:50:39.173Z,98073.16
2023-04-27T12:53:07.651Z,98070.75
2023-04-27T12:55:38.414Z,98067.81
2023-04-27T12:58:06.441Z,98065.91
2023-04-27T13:00:34.978Z,98053.56
2023-04-27T13:03:03.512Z,98058.03
2023-04-27T13:05:32.292Z,98063.47
2023-04-27T13:08:00.927Z,98060.94
2023-04-27T13:10:29.514Z,98048.13
2023-04-27T13:13:01.931Z,98039.03
2023-04-27T13:15:30.069Z,98042.47
2023-04-27T13:17:59.070Z,98044.38
2023-04-27T13:20:27.704Z,98041.84
2023-04-27T13:22:56.144Z,98040.66
2023-04-27T13:25:24.652Z,98037.69
2023-04-27T13:27:54.032Z,98033.72
2023-04-27T13:30:23.515Z,98037.91
2023-04-27T13:32:51.802Z,98034.84
2023-04-27T13:35:20.051Z,98037.00
2023-04-27T13:37:48.772Z,98036.50
2023-04-27T13:40:17.352Z,98030.66
2023-04-27T13:43:23.401Z,98025.88
2023-04-27T13:45:56.937Z,98024.88
2023-04-27T13:48:27.369Z,98023.72
2023-04-27T13:50:56.449Z,98028.56
2023-04-27T13:53:26.873Z,98022.25
2023-04-27T13:55:55.338Z,98016.06
2023-04-27T13:58:25.838Z,98021.91
2023-04-27T14:00:56.814Z,98023.53
2023-04-27T14:03:25.144Z,98015.16
2023-04-27T14:05:53.370Z,98010.91
2023-04-27T14:08:21.918Z,98014.97
2023-04-27T14:10:50.772Z,98010.31
2023-04-27T14:13:19.631Z,98009.91
2023-04-27T14:15:47.707Z,98015.28
2023-04-27T14:18:19.042Z,98017.47
2023-04-27T14:20:47.346Z,98013.53
2023-04-27T14:23:15.420Z,98024.34
2023-04-27T14:25:43.592Z,98020.31
2023-04-27T14:28:12.886Z,98013.97
2023-04-27T14:30:41.282Z,98022.88
2023-04-27T14:33:48.130Z,98026.50
2023-04-27T14:37:11.036Z,98018.53
2023-04-27T14:40:50.758Z,98020.13
2023-04-27T14:43:19.132Z,98016.88
2023-04-27T14:45:52.938Z,98007.81
2023-04-27T14:48:23.738Z,98009.94
2023-04-27T14:50:52.471Z,98013.88
2023-04-27T14:53:25.665Z,98012.25
2023-04-27T14:55:54.039Z,98010.53
2023-04-27T14:58:22.317Z,98009.84
2023-04-27T15:00:55.541Z,98007.06
2023-04-27T15:03:23.985Z,98017.59
2023-04-27T15:05:52.694Z,98012.22
2023-04-27T15:08:26.240Z,98013.13
2023-04-27T15:10:58.210Z,98014.22
2023-04-27T15:13:27.086Z,98010.78
2023-04-27T15:15:57.067Z,98011.31
2023-04-27T15:18:26.256Z,98019.34
2023-04-27T15:20:58.113Z,98017.53
2023-04-27T15:23:30.129Z,98009.84
2023-04-27T15:26:00.265Z,98019.16
2023-04-27T15:28:33.767Z,98012.16
2023-04-27T15:31:02.172Z,98015.31
2023-04-27T15:33:32.419Z,98019.34
2023-04-27T15:36:02.736Z,98006.31
2023-04-27T15:38:34.346Z,98008.28
2023-04-27T15:41:02.893Z,98010.88
2023-04-27T15:43:31.152Z,98000.28
2023-04-27T15:45:59.535Z,98004.78
2023-04-27T15:48:27.751Z,97994.41
2023-04-27T15:50:56.001Z,97989.25
2023-04-27T15:53:26.319Z,97993.72
2023-04-27T15:55:57.999Z,97991.09
2023-04-27T15:58:26.852Z,97994.13
2023-04-27T16:00:56.521Z,97994.53
2023-04-27T16:03:28.166Z,97989.13
2023-04-27T16:05:59.249Z,97988.03
2023-04-27T16:08:28.280Z,97973.69
2023-04-27T16:10:58.095Z,97972.06
2023-04-27T16:13:27.275Z,97975.22
2023-04-27T16:15:58.368Z,97971.50
2023-04-27T16:18:29.153Z,97957.78
2023-04-27T16:20:59.812Z,97959.00
2023-04-27T16:23:32.644Z,97958.28
2023-04-27T16:26:08.968Z,97956.78
2023-04-27T16:28:38.987Z,97962.31
2023-04-27T16:31:07.368Z,97950.91
2023-04-27T16:33:36.251Z,97952.72
2023-04-27T16:36:04.563Z,97951.84
2023-04-27T16:38:32.879Z,97945.75
2023-04-27T16:41:02.757Z,97944.97
2023-04-27T16:43:33.448Z,97955.03
2023-04-27T16:46:01.861Z,97941.31
2023-04-27T16:48:30.437Z,97947.25
2023-04-27T16:50:58.948Z,97952.78
2023-04-27T16:53:27.209Z,97945.81
2023-04-27T16:55:55.204Z,97949.34
2023-04-27T16:58:24.585Z,97947.56
2023-04-27T17:00:55.817Z,97948.97
2023-04-27T17:03:23.919Z,97945.81
2023-04-27T17:05:52.732Z,97941.59
2023-04-27T17:08:22.198Z,97941.38
2023-04-27T17:10:50.474Z,97943.00
2023-04-27T17:13:18.707Z,97937.13
2023-04-27T17:15:48.550Z,97942.78
2023-04-27T17:18:16.774Z,97943.31
2023-04-27T17:20:44.973Z,97944.19
2023-04-27T17:23:12.967Z,97945.31
2023-04-27T17:25:41.593Z,97953.91
2023-04-27T17:28:09.720Z,97943.47
2023-04-27T17:30:37.893Z,97954.66
2023-04-27T17:33:07.652Z,97951.56
2023-04-27T17:35:36.050Z,97956.06
2023-04-27T17:38:04.089Z,97948.34
2023-04-27T17:40:32.344Z,97949.31
2023-04-27T17:43:00.464Z,97955.13
2023-04-27T17:45:29.264Z,97960.13
2023-04-27T17:47:57.323Z,97949.88
2023-04-27T17:50:27.413Z,97958.41
2023-04-27T17:52:55.729Z,97953.56
2023-04-27T17:55:24.858Z,97947.41
2023-04-27T17:57:52.941Z,97930.63
2023-04-27T18:00:24.115Z,97938.84
2023-04-27T18:02:52.239Z,97951.44
2023-04-27T18:05:20.649Z,97943.97
2023-04-27T18:07:50.279Z,97926.09
2023-04-27T18:10:18.422Z,97935.69
2023-04-27T18:12:46.486Z,97939.56
2023-04-27T18:15:14.865Z,97939.38
2023-04-27T18:17:42.941Z,97945.13
2023-04-27T18:20:11.658Z,97936.75
2023-04-27T18:22:40.278Z,97949.34
2023-04-27T18:25:11.868Z,97962.28
2023-04-27T18:27:39.771Z,97961.53
2023-04-27T18:30:08.965Z,97954.00
2023-04-27T18:32:37.099Z,97948.72
2023-04-27T18:35:06.513Z,97963.41
2023-04-27T18:37:36.203Z,97957.69
2023-04-27T18:40:06.002Z,97956.41
2023-04-27T18:42:37.717Z,97971.09
2023-04-27T18:45:06.831Z,97976.78
2023-04-27T18:47:35.158Z,97969.53
2023-04-27T18:50:03.219Z,97965.75
2023-04-27T18:52:31.456Z,97965.06
2023-04-27T18:54:59.439Z,97962.38
2023-04-27T18:57:27.529Z,97952.69
2023-04-27T18:59:57.534Z,97954.31
2023-04-27T19:02:26.324Z,97950.88
2023-04-27T19:05:11.378Z,97954.94
2023-04-27T19:07:41.363Z,97957.69
2023-04-27T19:10:10.495Z,97966.34
2023-04-27T19:12:38.664Z,97966.09
2023-04-27T19:15:12.049Z,97969.91
2023-04-27T19:17:40.313Z,97969.13
2023-04-27T19:20:10.470Z,97972.91
2023-04-27T19:22:38.780Z,97980.78
2023-04-27T19:25:07.713Z,97976.47
2023-04-27T19:27:35.842Z,97984.34
2023-04-27T19:30:04.393Z,97984.34
2023-04-27T19:32:34.693Z,97980.56
2023-04-27T19:35:02.830Z,97967.03
2023-04-27T19:37:30.911Z,97990.34
2023-04-27T19:39:58.977Z,97986.88
2023-04-27T19:42:27.427Z,97986.88
2023-04-27T19:44:56.118Z,97981.47
2023-04-27T19:47:24.730Z,97985.81
2023-04-27T19:49:58.906Z,97972.00
2023-04-27T19:52:26.983Z,97967.69
2023-04-27T19:54:55.900Z,97960.94
2023-04-27T19:57:24.304Z,97953.91
2023-04-27T19:59:52.398Z,97946.59
2023-04-27T20:02:20.574Z,97955.53
2023-04-27T20:04:49.015Z,97965.81
2023-04-27T20:07:18.555Z,97962.56
2023-04-27T20:09:46.625Z,97957.41
2023-04-27T20:12:34.829Z,97955.78
2023-04-27T20:15:02.683Z,97959.03
2023-04-27T20:17:31.451Z,97960.69
2023-04-27T20:19:59.502Z,97957.69
2023-04-27T20:22:31.918Z,97962.56
2023-04-27T20:25:00.285Z,97957.41
2023-04-27T20:27:28.468Z,97962.00
2023-04-27T20:29:56.578Z,97954.72
2023-04-27T20:32:24.962Z,97957.16
2023-04-27T20:34:53.279Z,97949.56
2023-04-27T20:37:21.345Z,97952.25
2023-04-27T20:39:51.711Z,97948.75
2023-04-27T20:42:20.984Z,97954.69
2023-04-27T20:44:50.687Z,97949.00
2023-04-27T20:47:18.643Z,97936.56
2023-04-27T20:49:47.261Z,97940.59
2023-04-27T20:52:15.819Z,97933.84
2023-04-27T20:54:43.942Z,97933.50
2023-04-27T20:57:14.892Z,97933.50
2023-04-27T20:59:42.838Z,97942.69
2023-04-27T21:02:11.101Z,97931.34
2023-04-27T21:04:39.681Z,97933.78
2023-04-27T21:07:09.959Z,97935.13
2023-04-27T21:09:39.018Z,97923.25
2023-04-27T21:12:07.579Z,97925.66
2023-04-27T21:14:37.592Z,97916.75
2023-04-27T21:17:05.738Z,97906.47
2023-04-27T21:19:33.810Z,97909.47
2023-04-27T21:22:02.120Z,97909.47
2023-04-27T21:24:30.230Z,97918.13
2023-04-27T21:26:58.335Z,97913.50
2023-04-27T21:29:26.309Z,97913.50
2023-04-27T21:31:55.774Z,97907.81
2023-04-27T21:34:24.206Z,97909.19
2023-04-27T21:36:52.381Z,97897.31
2023-04-27T21:39:20.550Z,97892.72
2023-04-27T21:41:48.469Z,97901.91
2023-04-27T21:44:16.700Z,97892.97
2023-04-27T21:46:44.923Z,97883.53
2023-04-27T21:49:14.287Z,97891.34
2023-04-27T21:51:42.333Z,97890.28
2023-04-27T21:54:10.462Z,97878.94
2023-04-27T21:56:38.938Z,97874.06
2023-04-27T21:59:08.085Z,97881.59
2023-04-27T22:01:36.709Z,97875.13
2023-04-27T22:04:06.044Z,97877.78
2023-04-27T22:06:35.937Z,97873.69
2023-04-27T22:09:04.769Z,97862.91
2023-04-27T22:11:34.581Z,97861.81
2023-04-27T22:14:02.689Z,97874.75
2023-04-27T22:16:30.768Z,97864.19
2023-04-27T22:18:59.746Z,97871.19
2023-04-27T22:21:29.197Z,97876.06
2023-04-27T22:23:58.954Z,97876.88
2023-04-27T22:26:26.969Z,97879.03
2023-04-27T22:28:55.061Z,97874.72
2023-04-27T22:31:23.344Z,97872.28
2023-04-27T22:33:51.484Z,97873.09
2023-04-27T22:36:19.501Z,97882.53
2023-04-27T22:38:47.413Z,97873.09
2023-04-27T22:41:17.147Z,97874.44
2023-04-27T22:43:45.096Z,97878.75
2023-04-27T22:46:13.118Z,97875.78
2023-04-27T22:48:41.957Z,97872.78
2023-04-27T22:51:11.016Z,97871.44
2023-04-27T22:53:41.488Z,97867.13
2023-04-27T22:56:11.863Z,97862.25
2023-04-27T22:58:44.639Z,97867.94
2023-04-27T23:01:14.347Z,97869.53
2023-04-27T23:03:45.254Z,97870.09
2023-04-27T23:06:16.134Z,97862.28
2023-04-27T23:08:47.801Z,97865.50
2023-04-27T23:11:19.478Z,97858.22
2023-04-27T23:13:51.197Z,97871.16
2023-04-27T23:16:22.528Z,97861.72
2023-04-27T23:18:53.932Z,97870.38
2023-04-27T23:21:23.459Z,97876.56
2023-04-27T23:23:52.958Z,97890.09
2023-04-27T23:26:22.545Z,97875.50
2023-04-27T23:28:53.983Z,97864.44
2023-04-27T23:31:25.229Z,97867.41
2023-04-27T23:33:54.560Z,97855.78
2023-04-27T23:36:24.406Z,97863.06
2023-04-27T23:38:54.202Z,97858.75
2023-04-27T23:41:23.818Z,97853.09
2023-04-27T23:43:56.136Z,97839.06
2023-04-27T23:46:24.162Z,97843.41
2023-04-27T23:48:52.201Z,97843.94
2023-04-27T23:51:20.468Z,97834.25
2023-04-27T23:53:48.437Z,97832.34
2023-04-27T23:56:20.206Z,97830.19
2023-04-27T23:58:48.484Z,97831.56
